createdAt,value
2023-05-04T00:00:41.218Z,3.88
2023-05-04T00:03:09.541Z,3.33
2023-05-04T00:05:40.536Z,4.00
2023-05-04T00:08:10.109Z,3.28
2023-05-04T00:10:38.268Z,3.67
2023-05-04T00:13:06.900Z,3.78
2023-05-04T00:15:35.181Z,3.22
2023-05-04T00:18:03.430Z,3.25
2023-05-04T00:20:31.655Z,3.78
2023-05-04T00:22:59.833Z,3.47
2023-05-04T00:25:29.394Z,3.72
2023-05-04T00:27:57.902Z,3.63
2023-05-04T00:30:26.218Z,3.72
2023-05-04T00:32:54.442Z,3.47
2023-05-04T00:35:22.678Z,3.63
2023-05-04T00:37:51.177Z,3.35
2023-05-04T00:40:19.550Z,3.42
2023-05-04T00:42:49.398Z,3.58
2023-05-04T00:45:17.765Z,3.33
2023-05-04T00:47:46.217Z,3.30
2023-05-04T00:50:14.569Z,3.85
2023-05-04T00:52:44.898Z,3.70
2023-05-04T00:55:14.558Z,3.53
2023-05-04T00:57:43.558Z,3.45
2023-05-04T01:00:14.265Z,3.50
2023-05-04T01:02:42.866Z,3.60
2023-05-04T01:05:12.914Z,3.47
2023-05-04T01:07:48.333Z,3.55
2023-05-04T01:10:22.116Z,3.92
2023-05-04T01:12:57.424Z,3.83
2023-05-04T01:15:28.080Z,3.63
2023-05-04T01:17:56.364Z,3.23
2023-05-04T01:20:24.571Z,3.67
2023-05-04T01:22:54.367Z,3.92
2023-05-04T01:25:22.729Z,4.00
2023-05-04T01:27:57.640Z,3.70
2023-05-04T01:30:30.864Z,3.85
2023-05-04T01:32:59.778Z,3.65
2023-05-04T01:35:28.312Z,4.00
2023-05-04T01:37:58.032Z,3.60
2023-05-04T01:40:26.361Z,3.83
2023-05-04T01:42:54.888Z,3.67
2023-05-04T01:45:23.262Z,4.20
2023-05-04T01:47:51.560Z,3.63
2023-05-04T01:50:19.759Z,3.75
2023-05-04T01:52:47.972Z,3.42
2023-05-04T01:55:17.730Z,3.72
2023-05-04T01:57:46.364Z,3.20
2023-05-04T02:00:16.608Z,3.90
2023-05-04T02:02:44.975Z,4.03
2023-05-04T02:05:13.370Z,3.70
2023-05-04T02:07:41.619Z,3.45
2023-05-04T02:10:10.867Z,3.13
2023-05-04T02:12:41.456Z,3.58
2023-05-04T02:15:10.882Z,3.73
2023-05-04T02:17:39.154Z,3.28
2023-05-04T02:20:09.620Z,3.17
2023-05-04T02:22:37.950Z,3.20
2023-05-04T02:25:07.680Z,3.50
2023-05-04T02:27:35.992Z,3.53
2023-05-04T02:30:06.845Z,3.50
2023-05-04T02:32:35.397Z,3.63
2023-05-04T02:35:03.640Z,3.70
2023-05-04T02:37:31.832Z,3.80
2023-05-04T02:40:00.198Z,3.45
2023-05-04T02:42:28.743Z,4.32
2023-05-04T02:44:56.948Z,3.72
2023-05-04T02:47:26.818Z,3.72
2023-05-04T02:49:55.067Z,3.80
2023-05-04T02:52:23.300Z,3.67
2023-05-04T02:54:53.106Z,3.70
2023-05-04T02:57:21.539Z,3.92
2023-05-04T02:59:49.720Z,3.53
2023-05-04T03:02:18.014Z,3.80
2023-05-04T03:04:47.714Z,3.90
2023-05-04T03:07:15.908Z,3.85
2023-05-04T03:09:46.775Z,3.80
2023-05-04T03:12:15.805Z,3.33
2023-05-04T03:14:44.032Z,3.72
2023-05-04T03:17:12.254Z,3.30
2023-05-04T03:19:40.462Z,3.50
2023-05-04T03:22:10.031Z,3.65
2023-05-04T03:24:38.235Z,3.70
2023-05-04T03:27:06.406Z,3.88
2023-05-04T03:29:34.610Z,4.00
2023-05-04T03:32:02.846Z,3.85
2023-05-04T03:34:31.548Z,4.03
2023-05-04T03:36:59.683Z,3.90
2023-05-04T03:39:29.258Z,3.30
2023-05-04T03:41:57.560Z,3.65
2023-05-04T03:44:25.881Z,3.88
2023-05-04T03:46:54.091Z,3.33
2023-05-04T03:49:22.350Z,4.20
2023-05-04T03:51:50.579Z,3.50
2023-05-04T03:54:18.802Z,3.28
2023-05-04T03:56:48.462Z,3.50
2023-05-04T03:59:16.638Z,3.33
2023-05-04T04:01:44.829Z,3.28
2023-05-04T04:04:13.390Z,3.30
2023-05-04T04:06:43.437Z,3.30
2023-05-04T04:09:11.935Z,3.08
2023-05-04T04:11:40.227Z,3.13
2023-05-04T04:14:10.002Z,3.22
2023-05-04T04:16:38.458Z,3.40
2023-05-04T04:19:07.486Z,3.72
2023-05-04T04:21:35.861Z,3.70
2023-05-04T04:24:04.335Z,3.65
2023-05-04T04:26:32.658Z,3.22
2023-05-04T04:29:01.034Z,3.13
2023-05-04T04:31:31.189Z,3.65
2023-05-04T04:33:59.471Z,3.28
2023-05-04T04:36:27.609Z,3.50
2023-05-04T04:38:55.843Z,3.40
2023-05-04T04:41:25.039Z,3.30
2023-05-04T04:43:53.293Z,3.58
2023-05-04T04:46:21.655Z,3.40
2023-05-04T04:48:53.522Z,3.38
2023-05-04T04:51:21.936Z,2.95
2023-05-04T04:53:51.358Z,3.40
2023-05-04T04:56:19.597Z,3.13
2023-05-04T04:58:48.517Z,3.45
2023-05-04T05:01:18.149Z,3.67
2023-05-04T05:03:46.475Z,3.08
2023-05-04T05:06:16.197Z,3.53
2023-05-04T05:08:44.803Z,3.50
2023-05-04T05:11:12.991Z,3.30
2023-05-04T05:13:41.194Z,2.90
2023-05-04T05:16:09.472Z,3.30
2023-05-04T05:18:37.690Z,3.17
2023-05-04T05:21:07.383Z,3.13
2023-05-04T05:23:36.967Z,3.30
2023-05-04T05:26:05.168Z,2.95
2023-05-04T05:28:33.462Z,3.20
2023-05-04T05:31:01.667Z,3.10
2023-05-04T05:33:30.028Z,3.30
2023-05-04T05:35:58.302Z,3.65
2023-05-04T05:38:26.841Z,3.28
2023-05-04T05:40:57.026Z,3.30
2023-05-04T05:43:25.221Z,3.50
2023-05-04T05:45:53.652Z,2.85
2023-05-04T05:48:21.862Z,2.50
2023-05-04T05:50:50.292Z,3.03
2023-05-04T05:53:18.461Z,2.88
2023-05-04T05:55:48.115Z,2.80
2023-05-04T05:58:17.922Z,2.95
2023-05-04T06:00:46.311Z,2.30
2023-05-04T06:03:14.560Z,2.65
2023-05-04T06:05:42.825Z,2.58
2023-05-04T06:08:10.986Z,2.50
2023-05-04T06:10:39.635Z,2.30
2023-05-04T06:13:07.854Z,2.25
2023-05-04T06:15:37.694Z,2.42
2023-05-04T06:18:06.007Z,2.88
2023-05-04T06:20:34.227Z,2.70
2023-05-04T06:23:02.418Z,2.70
2023-05-04T06:25:30.586Z,3.20
2023-05-04T06:27:58.770Z,3.20
2023-05-04T06:30:26.952Z,2.85
2023-05-04T06:32:56.549Z,2.85
2023-05-04T06:35:24.810Z,2.67
2023-05-04T06:37:53.017Z,2.20
2023-05-04T06:40:21.306Z,2.38
2023-05-04T06:42:49.746Z,1.90
2023-05-04T06:45:18.241Z,2.38
2023-05-04T06:47:46.790Z,2.90
2023-05-04T06:50:17.279Z,2.53
2023-05-04T06:52:46.527Z,2.60
2023-05-04T06:55:15.073Z,2.35
2023-05-04T06:57:43.312Z,2.00
2023-05-04T07:00:12.653Z,2.40
2023-05-04T07:02:41.110Z,2.47
2023-05-04T07:05:10.121Z,2.60
2023-05-04T07:07:40.004Z,2.67
2023-05-04T07:10:08.929Z,2.40
2023-05-04T07:12:37.691Z,2.33
2023-05-04T07:15:07.275Z,2.67
2023-05-04T07:17:35.749Z,3.40
2023-05-04T07:20:04.894Z,3.10
2023-05-04T07:22:33.438Z,2.45
2023-05-04T07:25:03.450Z,2.60
2023-05-04T07:27:31.842Z,2.78
2023-05-04T07:30:00.003Z,2.90
2023-05-04T07:32:28.237Z,3.20
2023-05-04T07:34:56.473Z,2.75
2023-05-04T07:37:24.700Z,3.78
2023-05-04T07:39:52.919Z,4.00
2023-05-04T07:42:23.802Z,3.22
2023-05-04T07:44:53.351Z,3.70
2023-05-04T07:47:22.459Z,3.83
2023-05-04T07:49:51.153Z,4.03
2023-05-04T07:52:19.346Z,3.85
2023-05-04T07:54:47.989Z,4.40
2023-05-04T07:57:16.339Z,4.00
2023-05-04T07:59:45.996Z,4.03
2023-05-04T08:02:14.200Z,4.07
2023-05-04T08:04:42.420Z,4.00
2023-05-04T08:07:10.568Z,3.97
2023-05-04T08:09:38.820Z,4.28
2023-05-04T08:12:07.742Z,4.40
2023-05-04T08:14:37.547Z,4.25
2023-05-04T08:17:07.849Z,4.18
2023-05-04T08:19:36.124Z,3.90
2023-05-04T08:22:04.328Z,3.92
2023-05-04T08:24:32.605Z,3.70
2023-05-04T08:27:07.993Z,3.97
2023-05-04T08:29:37.417Z,3.45
2023-05-04T08:32:08.389Z,3.80
2023-05-04T08:34:37.494Z,3.58
2023-05-04T08:37:05.953Z,3.53
2023-05-04T08:39:34.140Z,3.80
2023-05-04T08:42:03.135Z,3.97
2023-05-04T08:44:31.630Z,3.85
2023-05-04T08:46:59.874Z,3.80
2023-05-04T08:49:30.600Z,3.92
2023-05-04T08:52:00.310Z,4.57
2023-05-04T08:54:29.092Z,3.80
2023-05-04T08:56:58.840Z,4.15
2023-05-04T08:59:29.583Z,4.25
2023-05-04T09:02:00.389Z,3.90
2023-05-04T09:07:00.232Z,4.82
2023-05-04T09:09:31.668Z,4.60
2023-05-04T09:12:00.298Z,4.57
2023-05-04T09:14:34.678Z,4.78
2023-05-04T09:17:03.383Z,4.25
2023-05-04T09:19:34.897Z,5.07
2023-05-04T09:22:03.295Z,4.57
2023-05-04T09:24:31.933Z,4.68
2023-05-04T09:27:10.989Z,5.00
2023-05-04T09:29:40.618Z,4.70
2023-05-04T09:32:13.499Z,4.85
2023-05-04T09:34:53.032Z,4.65
2023-05-04T09:37:22.205Z,5.18
2023-05-04T09:39:55.557Z,5.10
2023-05-04T09:42:24.756Z,5.03
2023-05-04T09:45:03.763Z,5.25
2023-05-04T09:47:40.041Z,5.53
2023-05-04T09:50:20.083Z,5.82
2023-05-04T09:52:49.436Z,4.70
2023-05-04T09:55:18.836Z,4.88
2023-05-04T09:57:48.601Z,5.03
2023-05-04T10:00:18.646Z,6.10
2023-05-04T10:02:48.194Z,5.38
2023-05-04T10:05:21.747Z,4.50
2023-05-04T10:07:51.001Z,4.82
2023-05-04T10:10:19.204Z,4.47
2023-05-04T10:12:47.611Z,4.63
2023-05-04T10:15:17.143Z,4.10
2023-05-04T10:18:10.241Z,4.40
2023-05-04T10:21:06.823Z,4.38
2023-05-04T10:23:57.237Z,4.78
2023-05-04T10:26:47.281Z,4.50
2023-05-04T10:29:23.875Z,4.57
2023-05-04T10:31:53.469Z,4.70
2023-05-04T10:34:26.920Z,4.53
2023-05-04T10:36:56.845Z,4.60
2023-05-04T10:39:28.189Z,4.10
2023-05-04T10:42:00.593Z,4.38
2023-05-04T10:44:30.148Z,4.25
2023-05-04T10:46:59.982Z,4.38
2023-05-04T10:49:28.569Z,4.40
2023-05-04T10:52:16.252Z,4.57
2023-05-04T10:54:44.954Z,5.00
2023-05-04T10:57:17.099Z,4.45
2023-05-04T10:59:56.269Z,4.50
2023-05-04T11:02:25.133Z,4.15
2023-05-04T11:05:04.425Z,4.00
2023-05-04T11:07:38.792Z,4.80
2023-05-04T11:10:09.787Z,4.43
2023-05-04T11:12:39.776Z,3.60
2023-05-04T11:15:10.289Z,3.53
2023-05-04T11:17:47.403Z,3.78
2023-05-04T11:20:23.158Z,3.40
2023-05-04T11:22:53.923Z,2.92
2023-05-04T11:25:29.017Z,3.72
2023-05-04T11:27:58.364Z,3.67
2023-05-04T11:30:33.673Z,3.08
2023-05-04T11:33:02.811Z,3.15
2023-05-04T11:35:31.024Z,2.95
2023-05-04T11:38:01.008Z,3.17
2023-05-04T11:40:29.234Z,3.30
2023-05-04T11:42:59.191Z,3.08
2023-05-04T11:45:29.873Z,3.10
2023-05-04T11:50:28.183Z,2.72
2023-05-04T11:53:09.040Z,2.55
2023-05-04T11:55:38.394Z,3.00
2023-05-04T11:58:07.495Z,2.63
2023-05-04T12:00:38.949Z,2.63
2023-05-04T12:03:08.408Z,2.50
2023-05-04T12:05:38.068Z,2.30
2023-05-04T12:08:12.442Z,2.42
2023-05-04T12:10:41.378Z,2.30
2023-05-04T12:13:18.109Z,2.40
2023-05-04T12:15:46.656Z,2.17
2023-05-04T12:18:29.677Z,2.10
2023-05-04T12:20:58.035Z,2.30
2023-05-04T12:23:27.815Z,2.20
2023-05-04T12:25:58.530Z,2.37
2023-05-04T12:28:27.812Z,2.22
2023-05-04T12:30:56.192Z,2.22
2023-05-04T12:33:24.813Z,1.70
2023-05-04T12:35:53.052Z,1.75
2023-05-04T12:38:21.657Z,1.88
2023-05-04T12:40:51.862Z,2.10
2023-05-04T12:43:23.026Z,2.08
2023-05-04T12:45:51.826Z,1.95
2023-05-04T12:48:21.643Z,2.10
2023-05-04T12:50:50.984Z,1.80
2023-05-04T12:53:21.871Z,2.03
2023-05-04T12:55:51.666Z,1.90
2023-05-04T12:58:19.929Z,1.77
2023-05-04T13:00:49.484Z,1.98
2023-05-04T13:03:19.957Z,1.80
2023-05-04T13:08:18.384Z,1.90
2023-05-04T13:10:47.349Z,1.48
2023-05-04T13:13:17.964Z,1.70
2023-05-04T13:15:47.005Z,1.77
2023-05-04T13:18:15.243Z,1.98
2023-05-04T13:20:43.508Z,1.80
2023-05-04T13:23:11.790Z,1.80
2023-05-04T13:25:40.185Z,1.77
2023-05-04T13:28:08.360Z,1.80
2023-05-04T13:30:37.933Z,2.15
2023-05-04T13:33:13.661Z,2.00
2023-05-04T13:35:49.614Z,1.80
2023-05-04T13:38:17.913Z,1.85
2023-05-04T13:40:46.125Z,1.85
2023-05-04T13:43:14.369Z,1.77
2023-05-04T13:45:44.083Z,1.88
2023-05-04T13:48:12.640Z,1.98
2023-05-04T13:50:40.871Z,1.60
2023-05-04T13:53:11.023Z,1.80
2023-05-04T13:55:39.540Z,1.77
2023-05-04T13:58:07.823Z,1.90
2023-05-04T14:00:36.136Z,1.60
2023-05-04T14:03:06.322Z,1.65
2023-05-04T14:05:35.653Z,1.67
2023-05-04T14:08:04.293Z,1.50
2023-05-04T14:10:33.422Z,1.60
2023-05-04T14:13:02.518Z,1.88
2023-05-04T14:15:32.097Z,1.50
2023-05-04T14:18:00.669Z,1.70
2023-05-04T14:20:30.570Z,1.70
2023-05-04T14:22:59.004Z,1.50
2023-05-04T14:25:27.360Z,1.60
2023-05-04T14:27:57.146Z,2.00
2023-05-04T14:30:26.559Z,2.00
2023-05-04T14:32:56.078Z,1.85
2023-05-04T14:35:24.699Z,2.20
2023-05-04T14:37:54.296Z,2.05
2023-05-04T14:40:22.647Z,2.00
2023-05-04T14:42:50.961Z,2.00
2023-05-04T14:45:20.333Z,1.80
2023-05-04T14:47:48.583Z,1.88
2023-05-04T14:50:16.866Z,2.00
2023-05-04T14:52:45.136Z,1.83
2023-05-04T14:55:15.038Z,1.85
2023-05-04T14:57:44.083Z,1.88
2023-05-04T15:00:13.499Z,2.00
2023-05-04T15:02:42.135Z,1.63
2023-05-04T15:05:12.725Z,1.80
2023-05-04T15:07:41.232Z,1.77
2023-05-04T15:10:11.322Z,1.70
2023-05-04T15:12:41.523Z,1.75
2023-05-04T15:15:10.788Z,1.67
2023-05-04T15:17:39.246Z,1.88
2023-05-04T15:20:09.974Z,1.80
2023-05-04T15:22:38.586Z,1.77
2023-05-04T15:25:07.607Z,1.60
2023-05-04T15:27:35.844Z,1.90
2023-05-04T15:30:07.634Z,1.77
2023-05-04T15:32:36.083Z,1.65
2023-05-04T15:35:06.325Z,1.80
2023-05-04T15:37:35.377Z,1.50
2023-05-04T15:40:04.741Z,1.90
2023-05-04T15:42:33.599Z,1.90
2023-05-04T15:45:02.124Z,2.40
2023-05-04T15:47:32.126Z,1.90
2023-05-04T15:50:00.502Z,2.00
2023-05-04T15:52:28.711Z,2.30
2023-05-04T15:54:57.446Z,2.47
2023-05-04T15:57:26.341Z,2.40
2023-05-04T15:59:55.766Z,2.35
2023-05-04T16:02:24.330Z,2.45
2023-05-04T16:04:54.777Z,2.33
2023-05-04T16:07:23.165Z,2.45
2023-05-04T16:09:51.738Z,2.47
2023-05-04T16:12:20.663Z,2.47
2023-05-04T16:14:49.306Z,2.47
2023-05-04T16:17:17.628Z,2.47
2023-05-04T16:19:45.897Z,2.50
2023-05-04T16:22:15.493Z,2.80
2023-05-04T16:24:43.710Z,2.60
2023-05-04T16:27:11.911Z,2.97
2023-05-04T16:29:40.195Z,2.70
2023-05-04T16:32:08.522Z,2.90
2023-05-04T16:34:37.082Z,3.00
2023-05-04T16:37:05.448Z,2.50
2023-05-04T16:39:36.207Z,2.90
2023-05-04T16:42:04.895Z,3.10
2023-05-04T16:44:33.683Z,2.80
2023-05-04T16:47:02.156Z,2.30
2023-05-04T16:49:31.052Z,2.15
2023-05-04T16:51:59.223Z,2.30
2023-05-04T16:54:27.555Z,2.10
2023-05-04T16:56:57.289Z,2.20
2023-05-04T16:59:25.590Z,2.42
2023-05-04T17:01:53.781Z,2.17
2023-05-04T17:04:22.031Z,2.40
2023-05-04T17:06:50.608Z,2.60
2023-05-04T17:09:18.844Z,2.55
2023-05-04T17:11:47.482Z,2.47
2023-05-04T17:14:17.224Z,2.55
2023-05-04T17:16:45.500Z,2.35
2023-05-04T17:19:13.921Z,2.38
2023-05-04T17:21:42.244Z,2.50
2023-05-04T17:24:10.529Z,2.50
2023-05-04T17:26:38.795Z,2.35
2023-05-04T17:29:08.654Z,2.78
2023-05-04T17:31:38.363Z,2.70
2023-05-04T17:34:06.614Z,2.33
2023-05-04T17:36:34.976Z,2.67
2023-05-04T17:39:04.101Z,2.70
2023-05-04T17:41:32.489Z,2.75
2023-05-04T17:44:00.948Z,2.78
2023-05-04T17:46:30.206Z,2.50
2023-05-04T17:48:59.833Z,2.67
2023-05-04T17:51:28.044Z,2.40
2023-05-04T17:53:56.285Z,2.60
2023-05-04T17:56:24.493Z,3.08
2023-05-04T17:58:52.762Z,2.72
2023-05-04T18:01:21.475Z,2.92
2023-05-04T18:03:50.502Z,2.95
2023-05-04T18:06:20.379Z,2.80
2023-05-04T18:08:48.698Z,2.92
2023-05-04T18:11:17.030Z,2.63
2023-05-04T18:13:45.346Z,2.80
2023-05-04T18:16:13.696Z,2.58
2023-05-04T18:18:41.950Z,2.95
2023-05-04T18:21:10.196Z,2.72
2023-05-04T18:23:40.759Z,2.83
2023-05-04T18:26:09.448Z,3.28
2023-05-04T18:28:37.681Z,2.90
2023-05-04T18:31:06.073Z,3.08
2023-05-04T18:33:35.465Z,3.45
2023-05-04T18:36:05.592Z,3.40
2023-05-04T18:38:34.968Z,3.17
2023-05-04T18:41:04.736Z,3.30
2023-05-04T18:43:33.025Z,3.25
2023-05-04T18:46:08.195Z,3.83
2023-05-04T18:48:36.426Z,3.60
2023-05-04T18:51:05.199Z,3.30
2023-05-04T18:53:33.442Z,3.47
2023-05-04T18:56:04.552Z,3.58
2023-05-04T18:58:33.140Z,3.10
2023-05-04T19:01:02.007Z,3.63
2023-05-04T19:03:30.543Z,3.00
2023-05-04T19:05:58.877Z,3.50
2023-05-04T19:08:27.317Z,3.40
2023-05-04T19:10:59.264Z,3.03
2023-05-04T19:13:28.981Z,3.47
2023-05-04T19:15:57.316Z,3.60
2023-05-04T19:18:25.649Z,3.10
2023-05-04T19:20:54.654Z,3.42
2023-05-04T19:23:23.024Z,3.30
2023-05-04T19:25:51.316Z,3.70
2023-05-04T19:28:19.733Z,3.80
2023-05-04T19:30:49.538Z,3.95
2023-05-04T19:33:17.943Z,4.00
2023-05-04T19:35:46.468Z,3.30
2023-05-04T19:38:14.796Z,3.80
2023-05-04T19:40:43.189Z,3.47
2023-05-04T19:43:11.506Z,3.65
2023-05-04T19:45:40.028Z,3.67
2023-05-04T19:48:10.082Z,3.58
2023-05-04T19:50:38.653Z,3.83
2023-05-04T19:53:06.868Z,3.53
2023-05-04T19:55:36.176Z,3.45
2023-05-04T19:58:05.157Z,3.38
2023-05-04T20:00:36.179Z,3.42
2023-05-04T20:03:04.671Z,3.25
2023-05-04T20:05:34.416Z,3.22
2023-05-04T20:08:04.938Z,3.50
2023-05-04T20:10:33.567Z,3.58
2023-05-04T20:13:02.061Z,3.63
2023-05-04T20:15:30.470Z,3.10
2023-05-04T20:17:59.023Z,3.00
2023-05-04T20:20:27.753Z,2.97
2023-05-04T20:22:58.286Z,3.05
2023-05-04T20:25:27.486Z,2.73
2023-05-04T20:27:58.660Z,3.13
2023-05-04T20:30:28.191Z,2.90
2023-05-04T20:32:57.061Z,2.92
2023-05-04T20:35:25.442Z,3.00
2023-05-04T20:37:53.608Z,2.97
2023-05-04T20:40:23.260Z,3.22
2023-05-04T20:42:51.510Z,3.50
2023-05-04T20:45:19.727Z,4.22
2023-05-04T20:47:48.470Z,3.75
2023-05-04T20:50:17.954Z,3.72
2023-05-04T20:52:46.212Z,3.47
2023-05-04T20:55:15.246Z,3.17
2023-05-04T20:57:45.150Z,2.92
2023-05-04T21:00:15.289Z,2.53
2023-05-04T21:02:44.085Z,2.60
2023-05-04T21:05:12.698Z,2.40
2023-05-04T21:07:41.160Z,2.60
2023-05-04T21:10:10.561Z,2.60
2023-05-04T21:12:39.051Z,2.65
2023-05-04T21:15:10.278Z,2.83
2023-05-04T21:17:38.623Z,3.17
2023-05-04T21:20:09.525Z,3.00
2023-05-04T21:22:38.122Z,2.63
2023-05-04T21:25:07.113Z,2.95
2023-05-04T21:27:36.125Z,2.72
2023-05-04T21:30:05.736Z,2.40
2023-05-04T21:32:36.405Z,2.65
2023-05-04T21:35:05.074Z,2.73
2023-05-04T21:37:33.453Z,2.72
2023-05-04T21:40:03.315Z,3.10
2023-05-04T21:42:32.837Z,2.80
2023-05-04T21:45:01.047Z,2.63
2023-05-04T21:47:29.573Z,2.95
2023-05-04T21:50:00.887Z,2.78
2023-05-04T21:52:29.185Z,2.30
2023-05-04T21:54:57.499Z,2.50
2023-05-04T21:57:26.135Z,2.28
2023-05-04T21:59:54.332Z,2.55
2023-05-04T22:02:22.593Z,2.67
2023-05-04T22:04:51.158Z,2.33
2023-05-04T22:07:20.864Z,2.80
2023-05-04T22:09:49.219Z,2.58
2023-05-04T22:12:17.534Z,2.10
2023-05-04T22:14:46.025Z,2.80
2023-05-04T22:17:14.475Z,2.92
2023-05-04T22:19:42.912Z,2.60
2023-05-04T22:22:11.213Z,2.55
2023-05-04T22:24:41.182Z,2.53
2023-05-04T22:27:09.529Z,2.40
2023-05-04T22:29:37.847Z,2.75
2023-05-04T22:32:07.808Z,2.30
2023-05-04T22:34:36.177Z,2.35
2023-05-04T22:37:04.476Z,2.60
2023-05-04T22:39:32.740Z,2.75
2023-05-04T22:42:03.016Z,2.15
2023-05-04T22:44:31.283Z,2.75
2023-05-04T22:46:59.462Z,2.70
2023-05-04T22:49:27.682Z,2.45
2023-05-04T22:51:55.849Z,2.53
2023-05-04T22:54:24.022Z,2.40
2023-05-04T22:56:52.217Z,2.83
2023-05-04T22:59:22.212Z,2.55
2023-05-04T23:01:50.480Z,2.28
2023-05-04T23:04:18.858Z,2.25
2023-05-04T23:06:47.320Z,2.53
2023-05-04T23:09:15.998Z,2.40
2023-05-04T23:11:44.498Z,2.58
2023-05-04T23:14:13.722Z,2.65
2023-05-04T23:16:43.624Z,2.20
2023-05-04T23:19:12.003Z,2.33
2023-05-04T23:21:40.462Z,2.35
2023-05-04T23:24:08.963Z,2.10
2023-05-04T23:26:37.469Z,2.55
2023-05-04T23:29:05.793Z,2.25
2023-05-04T23:31:34.091Z,2.30
2023-05-04T23:34:04.175Z,2.20
2023-05-04T23:36:32.535Z,2.25
2023-05-04T23:39:00.918Z,2.80
2023-05-04T23:41:29.213Z,2.10
2023-05-04T23:44:00.003Z,2.30
2023-05-04T23:46:28.426Z,2.15
2023-05-04T23:48:56.804Z,2.30
2023-05-04T23:51:28.578Z,2.20
2023-05-04T23:53:56.914Z,1.98
2023-05-04T23:56:25.204Z,2.30
2023-05-04T23:58:54.001Z,2.40
